sensor_id;sensor_type;location;lat;lon;timestamp;P1;durP1;ratioP1;P2;durP2;ratioP2
5539;SDS011;2792;52.452;9.752;2023-09-19T00:01:29;2.27;;;2.07;;
5539;SDS011;2792;52.452;9.752;2023-09-19T00:03:58;2.80;;;2.20;;
5539;SDS011;2792;52.452;9.752;2023-09-19T00:06:25;2.20;;;1.63;;
5539;SDS011;2792;52.452;9.752;2023-09-19T00:08:56;5.97;;;2.20;;
5539;SDS011;2792;52.452;9.752;2023-09-19T00:11:23;2.70;;;2.30;;
5539;SDS011;2792;52.452;9.752;2023-09-19T00:13:51;3.10;;;1.80;;
5539;SDS011;2792;52.452;9.752;2023-09-19T00:16:17;2.93;;;2.20;;
5539;SDS011;2792;52.452;9.752;2023-09-19T00:18:44;6.70;;;2.40;;
5539;SDS011;2792;52.452;9.752;2023-09-19T00:21:12;3.00;;;2.40;;
5539;SDS011;2792;52.452;9.752;2023-09-19T00:23:40;4.40;;;2.30;;
5539;SDS011;2792;52.452;9.752;2023-09-19T00:26:07;2.77;;;2.57;;
5539;SDS011;2792;52.452;9.752;2023-09-19T00:28:33;3.10;;;2.43;;
5539;SDS011;2792;52.452;9.752;2023-09-19T00:31:00;3.60;;;2.80;;
5539;SDS011;2792;52.452;9.752;2023-09-19T00:33:27;4.60;;;2.53;;
5539;SDS011;2792;52.452;9.752;2023-09-19T00:35:54;5.90;;;2.70;;
5539;SDS011;2792;52.452;9.752;2023-09-19T00:38:23;8.43;;;3.00;;
5539;SDS011;2792;52.452;9.752;2023-09-19T00:40:52;2.73;;;2.53;;
5539;SDS011;2792;52.452;9.752;2023-09-19T00:43:19;4.33;;;3.30;;
5539;SDS011;2792;52.452;9.752;2023-09-19T00:45:46;3.40;;;3.10;;
5539;SDS011;2792;52.452;9.752;2023-09-19T00:48:14;6.10;;;3.03;;
5539;SDS011;2792;52.452;9.752;2023-09-19T00:50:42;5.13;;;3.10;;
5539;SDS011;2792;52.452;9.752;2023-09-19T00:53:09;6.90;;;3.40;;
5539;SDS011;2792;52.452;9.752;2023-09-19T00:55:41;4.53;;;3.33;;
5539;SDS011;2792;52.452;9.752;2023-09-19T00:58:09;10.37;;;3.87;;
5539;SDS011;2792;52.452;9.752;2023-09-19T01:00:36;4.13;;;3.03;;
5539;SDS011;2792;52.452;9.752;2023-09-19T01:03:03;4.03;;;3.30;;
5539;SDS011;2792;52.452;9.752;2023-09-19T01:05:31;9.93;;;4.63;;
5539;SDS011;2792;52.452;9.752;2023-09-19T01:07:57;5.67;;;3.90;;
5539;SDS011;2792;52.452;9.752;2023-09-19T01:10:24;8.30;;;3.27;;
5539;SDS011;2792;52.452;9.752;2023-09-19T01:12:54;5.07;;;3.70;;
5539;SDS011;2792;52.452;9.752;2023-09-19T01:15:27;6.40;;;3.27;;
5539;SDS011;2792;52.452;9.752;2023-09-19T01:18:01;4.77;;;3.80;;
5539;SDS011;2792;52.452;9.752;2023-09-19T01:20:32;8.90;;;3.43;;
5539;SDS011;2792;52.452;9.752;2023-09-19T01:23:11;6.73;;;3.63;;
5539;SDS011;2792;52.452;9.752;2023-09-19T01:25:55;5.20;;;3.40;;
5539;SDS011;2792;52.452;9.752;2023-09-19T01:28:36;5.70;;;3.57;;
5539;SDS011;2792;52.452;9.752;2023-09-19T01:31:13;5.03;;;3.03;;
5539;SDS011;2792;52.452;9.752;2023-09-19T01:36:29;5.00;;;3.87;;
5539;SDS011;2792;52.452;9.752;2023-09-19T01:38:59;8.40;;;3.90;;
5539;SDS011;2792;52.452;9.752;2023-09-19T01:41:33;7.53;;;4.23;;
5539;SDS011;2792;52.452;9.752;2023-09-19T01:44:10;7.03;;;3.60;;
5539;SDS011;2792;52.452;9.752;2023-09-19T01:46:43;7.60;;;3.60;;
5539;SDS011;2792;52.452;9.752;2023-09-19T01:49:15;10.20;;;4.23;;
5539;SDS011;2792;52.452;9.752;2023-09-19T01:51:50;9.87;;;4.47;;
5539;SDS011;2792;52.452;9.752;2023-09-19T01:54:23;9.00;;;4.37;;
5539;SDS011;2792;52.452;9.752;2023-09-19T01:56:54;7.30;;;4.00;;
5539;SDS011;2792;52.452;9.752;2023-09-19T01:59:28;8.10;;;4.53;;
5539;SDS011;2792;52.452;9.752;2023-09-19T02:02:00;5.70;;;4.03;;
5539;SDS011;2792;52.452;9.752;2023-09-19T02:04:27;8.17;;;4.97;;
5539;SDS011;2792;52.452;9.752;2023-09-19T02:06:53;5.27;;;4.37;;
5539;SDS011;2792;52.452;9.752;2023-09-19T02:09:20;4.70;;;4.20;;
5539;SDS011;2792;52.452;9.752;2023-09-19T02:11:47;5.87;;;4.30;;
5539;SDS011;2792;52.452;9.752;2023-09-19T02:14:14;11.20;;;4.40;;
5539;SDS011;2792;52.452;9.752;2023-09-19T02:16:41;9.20;;;5.37;;
5539;SDS011;2792;52.452;9.752;2023-09-19T02:19:08;11.50;;;4.70;;
5539;SDS011;2792;52.452;9.752;2023-09-19T02:21:35;7.83;;;4.30;;
5539;SDS011;2792;52.452;9.752;2023-09-19T02:24:02;14.17;;;5.10;;
5539;SDS011;2792;52.452;9.752;2023-09-19T02:26:28;7.60;;;4.37;;
5539;SDS011;2792;52.452;9.752;2023-09-19T02:28:55;7.47;;;4.77;;
5539;SDS011;2792;52.452;9.752;2023-09-19T02:31:21;5.70;;;4.70;;
5539;SDS011;2792;52.452;9.752;2023-09-19T02:33:48;7.53;;;4.70;;
5539;SDS011;2792;52.452;9.752;2023-09-19T02:36:16;12.43;;;4.83;;
5539;SDS011;2792;52.452;9.752;2023-09-19T02:38:43;10.23;;;5.03;;
5539;SDS011;2792;52.452;9.752;2023-09-19T02:41:10;6.97;;;4.70;;
5539;SDS011;2792;52.452;9.752;2023-09-19T02:43:37;5.40;;;4.70;;
5539;SDS011;2792;52.452;9.752;2023-09-19T02:46:03;12.37;;;5.77;;
5539;SDS011;2792;52.452;9.752;2023-09-19T02:48:30;10.57;;;5.33;;
5539;SDS011;2792;52.452;9.752;2023-09-19T02:50:59;10.87;;;4.77;;
5539;SDS011;2792;52.452;9.752;2023-09-19T02:53:27;6.40;;;4.57;;
5539;SDS011;2792;52.452;9.752;2023-09-19T02:55:56;12.43;;;4.90;;
5539;SDS011;2792;52.452;9.752;2023-09-19T02:58:24;5.60;;;3.90;;
5539;SDS011;2792;52.452;9.752;2023-09-19T03:00:50;7.97;;;4.50;;
5539;SDS011;2792;52.452;9.752;2023-09-19T03:03:17;9.70;;;5.20;;
5539;SDS011;2792;52.452;9.752;2023-09-19T03:05:44;7.40;;;4.60;;
5539;SDS011;2792;52.452;9.752;2023-09-19T03:08:12;5.13;;;4.40;;
5539;SDS011;2792;52.452;9.752;2023-09-19T03:10:41;8.70;;;5.43;;
5539;SDS011;2792;52.452;9.752;2023-09-19T03:13:07;8.80;;;4.70;;
5539;SDS011;2792;52.452;9.752;2023-09-19T03:15:34;11.37;;;4.53;;
5539;SDS011;2792;52.452;9.752;2023-09-19T03:18:04;8.03;;;3.93;;
5539;SDS011;2792;52.452;9.752;2023-09-19T03:20:30;7.57;;;4.80;;
5539;SDS011;2792;52.452;9.752;2023-09-19T03:22:57;10.93;;;4.50;;
5539;SDS011;2792;52.452;9.752;2023-09-19T03:25:23;6.80;;;4.30;;
5539;SDS011;2792;52.452;9.752;2023-09-19T03:27:51;7.10;;;5.20;;
5539;SDS011;2792;52.452;9.752;2023-09-19T03:30:18;11.03;;;5.03;;
5539;SDS011;2792;52.452;9.752;2023-09-19T03:32:44;11.30;;;5.10;;
5539;SDS011;2792;52.452;9.752;2023-09-19T03:35:12;7.97;;;3.80;;
5539;SDS011;2792;52.452;9.752;2023-09-19T03:37:39;8.50;;;4.00;;
5539;SDS011;2792;52.452;9.752;2023-09-19T03:40:06;12.97;;;4.17;;
5539;SDS011;2792;52.452;9.752;2023-09-19T03:42:37;7.00;;;3.90;;
5539;SDS011;2792;52.452;9.752;2023-09-19T03:45:06;6.40;;;4.10;;
5539;SDS011;2792;52.452;9.752;2023-09-19T03:47:36;7.17;;;3.23;;
5539;SDS011;2792;52.452;9.752;2023-09-19T03:50:03;3.93;;;2.97;;
5539;SDS011;2792;52.452;9.752;2023-09-19T03:52:30;8.53;;;3.63;;
5539;SDS011;2792;52.452;9.752;2023-09-19T03:54:56;14.23;;;3.77;;
5539;SDS011;2792;52.452;9.752;2023-09-19T03:57:23;6.03;;;3.37;;
5539;SDS011;2792;52.452;9.752;2023-09-19T03:59:49;7.43;;;3.37;;
5539;SDS011;2792;52.452;9.752;2023-09-19T04:02:19;5.33;;;3.50;;
5539;SDS011;2792;52.452;9.752;2023-09-19T04:04:48;12.57;;;4.17;;
5539;SDS011;2792;52.452;9.752;2023-09-19T04:07:15;8.50;;;3.47;;
5539;SDS011;2792;52.452;9.752;2023-09-19T04:09:41;12.67;;;4.53;;
5539;SDS011;2792;52.452;9.752;2023-09-19T04:12:08;5.03;;;3.50;;
5539;SDS011;2792;52.452;9.752;2023-09-19T04:14:34;10.03;;;3.73;;
5539;SDS011;2792;52.452;9.752;2023-09-19T04:17:01;4.87;;;3.30;;
5539;SDS011;2792;52.452;9.752;2023-09-19T04:19:29;8.43;;;3.87;;
5539;SDS011;2792;52.452;9.752;2023-09-19T04:21:55;6.07;;;2.93;;
5539;SDS011;2792;52.452;9.752;2023-09-19T04:24:22;8.17;;;3.23;;
5539;SDS011;2792;52.452;9.752;2023-09-19T04:26:48;5.50;;;2.83;;
5539;SDS011;2792;52.452;9.752;2023-09-19T04:29:15;6.00;;;2.80;;
5539;SDS011;2792;52.452;9.752;2023-09-19T04:31:42;11.83;;;3.27;;
5539;SDS011;2792;52.452;9.752;2023-09-19T04:34:10;5.93;;;2.77;;
5539;SDS011;2792;52.452;9.752;2023-09-19T04:36:43;6.30;;;2.70;;
5539;SDS011;2792;52.452;9.752;2023-09-19T04:39:10;5.83;;;3.33;;
5539;SDS011;2792;52.452;9.752;2023-09-19T04:41:37;7.20;;;3.10;;
5539;SDS011;2792;52.452;9.752;2023-09-19T04:44:05;11.63;;;4.10;;
5539;SDS011;2792;52.452;9.752;2023-09-19T04:46:32;7.87;;;3.00;;
5539;SDS011;2792;52.452;9.752;2023-09-19T04:48:59;11.00;;;3.43;;
5539;SDS011;2792;52.452;9.752;2023-09-19T04:51:25;11.63;;;3.73;;
5539;SDS011;2792;52.452;9.752;2023-09-19T04:53:55;6.60;;;3.60;;
5539;SDS011;2792;52.452;9.752;2023-09-19T04:56:22;5.87;;;3.30;;
5539;SDS011;2792;52.452;9.752;2023-09-19T04:58:49;7.27;;;3.17;;
5539;SDS011;2792;52.452;9.752;2023-09-19T05:01:15;11.10;;;3.63;;
5539;SDS011;2792;52.452;9.752;2023-09-19T05:03:42;6.07;;;3.50;;
5539;SDS011;2792;52.452;9.752;2023-09-19T05:06:09;8.20;;;3.30;;
5539;SDS011;2792;52.452;9.752;2023-09-19T05:08:36;9.73;;;4.47;;
5539;SDS011;2792;52.452;9.752;2023-09-19T05:11:05;8.60;;;3.63;;
5539;SDS011;2792;52.452;9.752;2023-09-19T05:13:31;12.87;;;3.60;;
5539;SDS011;2792;52.452;9.752;2023-09-19T05:15:59;19.53;;;3.97;;
5539;SDS011;2792;52.452;9.752;2023-09-19T05:18:26;8.90;;;4.10;;
5539;SDS011;2792;52.452;9.752;2023-09-19T05:20:53;9.13;;;4.30;;
5539;SDS011;2792;52.452;9.752;2023-09-19T05:23:19;18.00;;;5.03;;
5539;SDS011;2792;52.452;9.752;2023-09-19T05:25:46;9.67;;;5.00;;
5539;SDS011;2792;52.452;9.752;2023-09-19T05:28:15;12.20;;;4.90;;
5539;SDS011;2792;52.452;9.752;2023-09-19T05:30:41;10.03;;;5.10;;
5539;SDS011;2792;52.452;9.752;2023-09-19T05:33:08;9.43;;;4.90;;
5539;SDS011;2792;52.452;9.752;2023-09-19T05:35:35;13.90;;;5.70;;
5539;SDS011;2792;52.452;9.752;2023-09-19T05:38:02;5.90;;;5.17;;
5539;SDS011;2792;52.452;9.752;2023-09-19T05:40:30;11.07;;;6.10;;
5539;SDS011;2792;52.452;9.752;2023-09-19T05:42:57;14.80;;;7.17;;
5539;SDS011;2792;52.452;9.752;2023-09-19T05:45:25;11.43;;;6.60;;
5539;SDS011;2792;52.452;9.752;2023-09-19T05:47:52;22.33;;;5.97;;
5539;SDS011;2792;52.452;9.752;2023-09-19T05:50:20;9.20;;;5.73;;
5539;SDS011;2792;52.452;9.752;2023-09-19T05:52:51;9.27;;;5.83;;
5539;SDS011;2792;52.452;9.752;2023-09-19T05:55:18;14.60;;;5.43;;
5539;SDS011;2792;52.452;9.752;2023-09-19T05:57:48;8.90;;;5.50;;
5539;SDS011;2792;52.452;9.752;2023-09-19T06:00:16;13.30;;;5.60;;
5539;SDS011;2792;52.452;9.752;2023-09-19T06:02:45;10.30;;;5.60;;
5539;SDS011;2792;52.452;9.752;2023-09-19T06:05:11;8.70;;;4.93;;
5539;SDS011;2792;52.452;9.752;2023-09-19T06:07:38;8.90;;;4.83;;
5539;SDS011;2792;52.452;9.752;2023-09-19T06:10:05;12.90;;;7.00;;
5539;SDS011;2792;52.452;9.752;2023-09-19T06:12:32;10.27;;;6.10;;
5539;SDS011;2792;52.452;9.752;2023-09-19T06:15:02;7.47;;;5.60;;
5539;SDS011;2792;52.452;9.752;2023-09-19T06:17:30;12.47;;;6.10;;
5539;SDS011;2792;52.452;9.752;2023-09-19T06:19:58;10.10;;;4.93;;
5539;SDS011;2792;52.452;9.752;2023-09-19T06:22:24;7.27;;;4.80;;
5539;SDS011;2792;52.452;9.752;2023-09-19T06:24:51;11.40;;;5.27;;
5539;SDS011;2792;52.452;9.752;2023-09-19T06:27:18;11.07;;;5.80;;
5539;SDS011;2792;52.452;9.752;2023-09-19T06:29:44;9.33;;;5.27;;
5539;SDS011;2792;52.452;9.752;2023-09-19T06:32:11;8.37;;;4.77;;
5539;SDS011;2792;52.452;9.752;2023-09-19T06:34:37;9.07;;;4.50;;
5539;SDS011;2792;52.452;9.752;2023-09-19T06:37:05;12.63;;;4.90;;
5539;SDS011;2792;52.452;9.752;2023-09-19T06:39:32;11.20;;;4.90;;
5539;SDS011;2792;52.452;9.752;2023-09-19T06:41:58;14.13;;;4.90;;
5539;SDS011;2792;52.452;9.752;2023-09-19T06:44:26;6.87;;;3.80;;
5539;SDS011;2792;52.452;9.752;2023-09-19T06:46:54;8.77;;;4.73;;
5539;SDS011;2792;52.452;9.752;2023-09-19T06:49:21;13.33;;;5.70;;
5539;SDS011;2792;52.452;9.752;2023-09-19T06:51:47;10.57;;;4.60;;
5539;SDS011;2792;52.452;9.752;2023-09-19T06:54:15;8.37;;;4.10;;
5539;SDS011;2792;52.452;9.752;2023-09-19T06:56:43;9.50;;;4.47;;
5539;SDS011;2792;52.452;9.752;2023-09-19T06:59:09;10.63;;;3.53;;
5539;SDS011;2792;52.452;9.752;2023-09-19T07:01:39;14.90;;;4.50;;
5539;SDS011;2792;52.452;9.752;2023-09-19T07:04:06;13.73;;;4.20;;
5539;SDS011;2792;52.452;9.752;2023-09-19T07:06:32;16.43;;;4.03;;
5539;SDS011;2792;52.452;9.752;2023-09-19T07:08:59;11.33;;;3.30;;
5539;SDS011;2792;52.452;9.752;2023-09-19T07:11:27;8.50;;;3.40;;
5539;SDS011;2792;52.452;9.752;2023-09-19T07:13:55;10.53;;;3.37;;
5539;SDS011;2792;52.452;9.752;2023-09-19T07:16:22;14.10;;;3.50;;
5539;SDS011;2792;52.452;9.752;2023-09-19T07:18:54;8.43;;;3.10;;
5539;SDS011;2792;52.452;9.752;2023-09-19T07:21:21;7.33;;;2.73;;
5539;SDS011;2792;52.452;9.752;2023-09-19T07:23:48;10.93;;;3.07;;
5539;SDS011;2792;52.452;9.752;2023-09-19T07:26:14;7.40;;;2.43;;
5539;SDS011;2792;52.452;9.752;2023-09-19T07:28:42;8.33;;;2.57;;
5539;SDS011;2792;52.452;9.752;2023-09-19T07:31:09;10.20;;;2.80;;
5539;SDS011;2792;52.452;9.752;2023-09-19T07:33:35;8.87;;;2.80;;
5539;SDS011;2792;52.452;9.752;2023-09-19T07:36:02;7.17;;;1.97;;
5539;SDS011;2792;52.452;9.752;2023-09-19T07:38:29;8.23;;;2.87;;
5539;SDS011;2792;52.452;9.752;2023-09-19T07:40:59;9.50;;;2.43;;
5539;SDS011;2792;52.452;9.752;2023-09-19T07:43:27;6.37;;;2.30;;
5539;SDS011;2792;52.452;9.752;2023-09-19T07:45:55;6.97;;;2.50;;
5539;SDS011;2792;52.452;9.752;2023-09-19T07:48:21;16.77;;;2.60;;
5539;SDS011;2792;52.452;9.752;2023-09-19T07:50:49;5.17;;;2.13;;
5539;SDS011;2792;52.452;9.752;2023-09-19T07:53:16;11.60;;;2.70;;
5539;SDS011;2792;52.452;9.752;2023-09-19T07:55:42;8.13;;;2.07;;
5539;SDS011;2792;52.452;9.752;2023-09-19T07:58:13;14.60;;;3.30;;
5539;SDS011;2792;52.452;9.752;2023-09-19T08:00:40;6.50;;;1.80;;
5539;SDS011;2792;52.452;9.752;2023-09-19T08:03:08;9.03;;;2.57;;
5539;SDS011;2792;52.452;9.752;2023-09-19T08:05:39;9.10;;;2.43;;
5539;SDS011;2792;52.452;9.752;2023-09-19T08:08:08;7.77;;;2.80;;
5539;SDS011;2792;52.452;9.752;2023-09-19T08:10:35;9.17;;;2.20;;
5539;SDS011;2792;52.452;9.752;2023-09-19T08:13:04;10.33;;;2.90;;
5539;SDS011;2792;52.452;9.752;2023-09-19T08:15:32;6.10;;;2.47;;
5539;SDS011;2792;52.452;9.752;2023-09-19T08:17:59;9.40;;;2.50;;
5539;SDS011;2792;52.452;9.752;2023-09-19T08:20:28;5.83;;;1.63;;
5539;SDS011;2792;52.452;9.752;2023-09-19T08:22:54;3.87;;;1.60;;
5539;SDS011;2792;52.452;9.752;2023-09-19T08:25:21;10.73;;;2.23;;
5539;SDS011;2792;52.452;9.752;2023-09-19T08:27:48;7.83;;;2.33;;
5539;SDS011;2792;52.452;9.752;2023-09-19T08:30:16;10.60;;;2.40;;
5539;SDS011;2792;52.452;9.752;2023-09-19T08:32:45;6.37;;;2.23;;
5539;SDS011;2792;52.452;9.752;2023-09-19T08:35:12;12.67;;;3.93;;
5539;SDS011;2792;52.452;9.752;2023-09-19T08:37:41;11.00;;;3.20;;
5539;SDS011;2792;52.452;9.752;2023-09-19T08:40:10;4.93;;;2.37;;
5539;SDS011;2792;52.452;9.752;2023-09-19T08:42:47;9.20;;;2.20;;
5539;SDS011;2792;52.452;9.752;2023-09-19T08:45:15;6.27;;;2.07;;
5539;SDS011;2792;52.452;9.752;2023-09-19T08:47:50;7.03;;;2.67;;
5539;SDS011;2792;52.452;9.752;2023-09-19T08:50:23;8.33;;;2.93;;
5539;SDS011;2792;52.452;9.752;2023-09-19T08:52:55;4.73;;;1.73;;
5539;SDS011;2792;52.452;9.752;2023-09-19T08:55:23;12.03;;;2.33;;
5539;SDS011;2792;52.452;9.752;2023-09-19T08:57:51;9.40;;;2.10;;
5539;SDS011;2792;52.452;9.752;2023-09-19T09:00:18;11.87;;;2.27;;
5539;SDS011;2792;52.452;9.752;2023-09-19T09:02:47;6.03;;;1.80;;
5539;SDS011;2792;52.452;9.752;2023-09-19T09:05:15;6.70;;;1.80;;
5539;SDS011;2792;52.452;9.752;2023-09-19T09:07:47;7.30;;;2.23;;
5539;SDS011;2792;52.452;9.752;2023-09-19T09:10:16;4.63;;;1.70;;
5539;SDS011;2792;52.452;9.752;2023-09-19T09:12:43;6.93;;;1.90;;
5539;SDS011;2792;52.452;9.752;2023-09-19T09:15:10;5.90;;;1.90;;
5539;SDS011;2792;52.452;9.752;2023-09-19T09:17:41;9.00;;;1.90;;
5539;SDS011;2792;52.452;9.752;2023-09-19T09:20:08;4.33;;;1.70;;
5539;SDS011;2792;52.452;9.752;2023-09-19T09:22:35;4.73;;;2.13;;
5539;SDS011;2792;52.452;9.752;2023-09-19T09:25:05;8.47;;;2.30;;
5539;SDS011;2792;52.452;9.752;2023-09-19T09:27:33;4.30;;;2.20;;
5539;SDS011;2792;52.452;9.752;2023-09-19T09:30:00;6.00;;;2.47;;
5539;SDS011;2792;52.452;9.752;2023-09-19T09:32:27;11.03;;;2.77;;
5539;SDS011;2792;52.452;9.752;2023-09-19T09:34:55;11.27;;;2.40;;
5539;SDS011;2792;52.452;9.752;2023-09-19T09:37:22;4.87;;;1.87;;
5539;SDS011;2792;52.452;9.752;2023-09-19T09:39:50;8.60;;;2.87;;
5539;SDS011;2792;52.452;9.752;2023-09-19T09:42:31;6.57;;;2.20;;
5539;SDS011;2792;52.452;9.752;2023-09-19T09:45:14;8.23;;;2.63;;
5539;SDS011;2792;52.452;9.752;2023-09-19T09:47:42;7.70;;;2.30;;
5539;SDS011;2792;52.452;9.752;2023-09-19T09:50:22;12.50;;;3.10;;
5539;SDS011;2792;52.452;9.752;2023-09-19T09:52:54;8.00;;;2.00;;
5539;SDS011;2792;52.452;9.752;2023-09-19T09:55:26;7.20;;;2.00;;
5539;SDS011;2792;52.452;9.752;2023-09-19T09:57:59;5.50;;;2.23;;
5539;SDS011;2792;52.452;9.752;2023-09-19T10:00:51;6.20;;;1.97;;
5539;SDS011;2792;52.452;9.752;2023-09-19T10:03:21;9.13;;;2.30;;
5539;SDS011;2792;52.452;9.752;2023-09-19T10:05:52;11.60;;;2.30;;
5539;SDS011;2792;52.452;9.752;2023-09-19T10:08:20;6.80;;;2.43;;
5539;SDS011;2792;52.452;9.752;2023-09-19T10:10:47;6.73;;;2.27;;
5539;SDS011;2792;52.452;9.752;2023-09-19T10:13:21;11.47;;;2.00;;
5539;SDS011;2792;52.452;9.752;2023-09-19T10:15:48;8.47;;;2.37;;
5539;SDS011;2792;52.452;9.752;2023-09-19T10:18:18;5.50;;;1.83;;
5539;SDS011;2792;52.452;9.752;2023-09-19T10:20:46;5.27;;;1.97;;
5539;SDS011;2792;52.452;9.752;2023-09-19T10:23:13;7.13;;;2.23;;
5539;SDS011;2792;52.452;9.752;2023-09-19T10:25:45;9.80;;;2.60;;
5539;SDS011;2792;52.452;9.752;2023-09-19T10:28:13;9.10;;;2.70;;
5539;SDS011;2792;52.452;9.752;2023-09-19T10:30:42;10.80;;;2.13;;
5539;SDS011;2792;52.452;9.752;2023-09-19T10:33:10;8.57;;;2.37;;
5539;SDS011;2792;52.452;9.752;2023-09-19T10:35:38;7.27;;;1.90;;
5539;SDS011;2792;52.452;9.752;2023-09-19T10:38:06;6.70;;;1.90;;
5539;SDS011;2792;52.452;9.752;2023-09-19T10:40:34;6.70;;;2.40;;
5539;SDS011;2792;52.452;9.752;2023-09-19T10:43:02;4.93;;;2.10;;
5539;SDS011;2792;52.452;9.752;2023-09-19T10:45:30;8.30;;;2.47;;
5539;SDS011;2792;52.452;9.752;2023-09-19T10:47:59;8.70;;;2.60;;
5539;SDS011;2792;52.452;9.752;2023-09-19T10:50:27;5.10;;;2.50;;
5539;SDS011;2792;52.452;9.752;2023-09-19T10:52:58;6.00;;;2.13;;
5539;SDS011;2792;52.452;9.752;2023-09-19T10:55:29;6.53;;;2.37;;
5539;SDS011;2792;52.452;9.752;2023-09-19T10:57:57;8.33;;;2.67;;
5539;SDS011;2792;52.452;9.752;2023-09-19T11:00:51;10.97;;;3.20;;
5539;SDS011;2792;52.452;9.752;2023-09-19T11:03:21;6.13;;;2.53;;
5539;SDS011;2792;52.452;9.752;2023-09-19T11:06:03;5.70;;;2.23;;
5539;SDS011;2792;52.452;9.752;2023-09-19T11:11:39;4.97;;;2.20;;
5539;SDS011;2792;52.452;9.752;2023-09-19T11:14:16;4.23;;;2.33;;
5539;SDS011;2792;52.452;9.752;2023-09-19T11:23:19;9.73;;;2.50;;
5539;SDS011;2792;52.452;9.752;2023-09-19T11:25:49;6.90;;;2.47;;
5539;SDS011;2792;52.452;9.752;2023-09-19T11:28:34;11.43;;;2.40;;
5539;SDS011;2792;52.452;9.752;2023-09-19T11:40:11;8.47;;;2.60;;
5539;SDS011;2792;52.452;9.752;2023-09-19T11:42:42;7.03;;;2.27;;
5539;SDS011;2792;52.452;9.752;2023-09-19T11:48:22;5.60;;;2.53;;
5539;SDS011;2792;52.452;9.752;2023-09-19T11:50:50;4.13;;;2.30;;
5539;SDS011;2792;52.452;9.752;2023-09-19T11:53:18;5.40;;;2.53;;
5539;SDS011;2792;52.452;9.752;2023-09-19T11:55:46;6.30;;;2.30;;
5539;SDS011;2792;52.452;9.752;2023-09-19T11:58:13;3.70;;;1.90;;
5539;SDS011;2792;52.452;9.752;2023-09-19T12:00:42;4.67;;;2.23;;
5539;SDS011;2792;52.452;9.752;2023-09-19T12:03:10;7.33;;;2.07;;
5539;SDS011;2792;52.452;9.752;2023-09-19T12:05:39;5.90;;;2.50;;
5539;SDS011;2792;52.452;9.752;2023-09-19T12:08:06;6.93;;;2.23;;
5539;SDS011;2792;52.452;9.752;2023-09-19T12:10:34;6.70;;;1.93;;
5539;SDS011;2792;52.452;9.752;2023-09-19T12:13:15;10.87;;;3.00;;
5539;SDS011;2792;52.452;9.752;2023-09-19T12:15:42;7.00;;;2.03;;
5539;SDS011;2792;52.452;9.752;2023-09-19T12:18:10;5.83;;;2.40;;
5539;SDS011;2792;52.452;9.752;2023-09-19T12:20:43;3.80;;;2.00;;
5539;SDS011;2792;52.452;9.752;2023-09-19T12:23:12;6.33;;;2.13;;
5539;SDS011;2792;52.452;9.752;2023-09-19T12:25:41;6.80;;;2.10;;
5539;SDS011;2792;52.452;9.752;2023-09-19T12:28:13;8.40;;;2.53;;
5539;SDS011;2792;52.452;9.752;2023-09-19T12:30:41;5.72;;;2.30;;
5539;SDS011;2792;52.452;9.752;2023-09-19T12:33:14;7.47;;;2.73;;
5539;SDS011;2792;52.452;9.752;2023-09-19T12:35:44;9.00;;;2.40;;
5539;SDS011;2792;52.452;9.752;2023-09-19T12:38:10;8.70;;;2.40;;
5539;SDS011;2792;52.452;9.752;2023-09-19T12:40:37;5.63;;;2.10;;
5539;SDS011;2792;52.452;9.752;2023-09-19T12:43:07;7.83;;;2.60;;
5539;SDS011;2792;52.452;9.752;2023-09-19T12:45:42;9.73;;;2.10;;
5539;SDS011;2792;52.452;9.752;2023-09-19T12:48:19;7.33;;;2.53;;
5539;SDS011;2792;52.452;9.752;2023-09-19T12:51:03;5.67;;;2.30;;
5539;SDS011;2792;52.452;9.752;2023-09-19T12:53:32;7.20;;;2.30;;
5539;SDS011;2792;52.452;9.752;2023-09-19T12:56:03;11.30;;;2.77;;
5539;SDS011;2792;52.452;9.752;2023-09-19T12:58:31;6.70;;;2.07;;
5539;SDS011;2792;52.452;9.752;2023-09-19T13:01:01;6.80;;;2.80;;
5539;SDS011;2792;52.452;9.752;2023-09-19T13:03:30;5.97;;;2.00;;
5539;SDS011;2792;52.452;9.752;2023-09-19T13:06:00;12.03;;;2.80;;
5539;SDS011;2792;52.452;9.752;2023-09-19T13:08:28;8.40;;;2.80;;
5539;SDS011;2792;52.452;9.752;2023-09-19T13:11:04;6.53;;;2.40;;
5539;SDS011;2792;52.452;9.752;2023-09-19T13:13:39;5.87;;;3.20;;
5539;SDS011;2792;52.452;9.752;2023-09-19T13:16:09;5.37;;;2.50;;
5539;SDS011;2792;52.452;9.752;2023-09-19T13:18:43;6.27;;;2.37;;
5539;SDS011;2792;52.452;9.752;2023-09-19T13:21:15;9.33;;;2.50;;
5539;SDS011;2792;52.452;9.752;2023-09-19T13:23:48;9.20;;;2.33;;
5539;SDS011;2792;52.452;9.752;2023-09-19T13:26:17;7.40;;;2.57;;
5539;SDS011;2792;52.452;9.752;2023-09-19T13:28:44;9.17;;;2.33;;
5539;SDS011;2792;52.452;9.752;2023-09-19T13:31:14;5.67;;;2.63;;
5539;SDS011;2792;52.452;9.752;2023-09-19T13:33:44;4.33;;;2.03;;
5539;SDS011;2792;52.452;9.752;2023-09-19T13:36:11;4.80;;;2.33;;
5539;SDS011;2792;52.452;9.752;2023-09-19T13:38:39;5.00;;;2.33;;
5539;SDS011;2792;52.452;9.752;2023-09-19T13:41:07;5.30;;;2.47;;
5539;SDS011;2792;52.452;9.752;2023-09-19T13:43:34;6.10;;;1.93;;
5539;SDS011;2792;52.452;9.752;2023-09-19T13:46:00;8.70;;;3.13;;
5539;SDS011;2792;52.452;9.752;2023-09-19T13:48:28;7.80;;;2.90;;
5539;SDS011;2792;52.452;9.752;2023-09-19T13:50:55;5.03;;;2.27;;
5539;SDS011;2792;52.452;9.752;2023-09-19T13:53:22;10.00;;;3.03;;
5539;SDS011;2792;52.452;9.752;2023-09-19T13:55:48;8.13;;;2.73;;
5539;SDS011;2792;52.452;9.752;2023-09-19T13:58:15;5.20;;;2.67;;
5539;SDS011;2792;52.452;9.752;2023-09-19T14:00:41;7.93;;;2.43;;
5539;SDS011;2792;52.452;9.752;2023-09-19T14:03:08;10.03;;;2.13;;
5539;SDS011;2792;52.452;9.752;2023-09-19T14:05:37;6.53;;;3.40;;
5539;SDS011;2792;52.452;9.752;2023-09-19T14:08:04;9.30;;;3.17;;
5539;SDS011;2792;52.452;9.752;2023-09-19T14:10:31;6.13;;;2.53;;
5539;SDS011;2792;52.452;9.752;2023-09-19T14:12:58;6.33;;;2.23;;
5539;SDS011;2792;52.452;9.752;2023-09-19T14:15:25;6.80;;;2.00;;
5539;SDS011;2792;52.452;9.752;2023-09-19T14:17:54;9.17;;;2.90;;
5539;SDS011;2792;52.452;9.752;2023-09-19T14:20:22;10.67;;;2.50;;
5539;SDS011;2792;52.452;9.752;2023-09-19T14:22:50;4.37;;;1.90;;
5539;SDS011;2792;52.452;9.752;2023-09-19T14:25:16;5.80;;;2.40;;
5539;SDS011;2792;52.452;9.752;2023-09-19T14:27:43;3.63;;;1.80;;
5539;SDS011;2792;52.452;9.752;2023-09-19T14:30:09;4.83;;;2.40;;
5539;SDS011;2792;52.452;9.752;2023-09-19T14:32:37;7.67;;;2.30;;
5539;SDS011;2792;52.452;9.752;2023-09-19T14:35:04;7.17;;;2.40;;
5539;SDS011;2792;52.452;9.752;2023-09-19T14:37:31;6.83;;;2.30;;
5539;SDS011;2792;52.452;9.752;2023-09-19T14:39:59;13.17;;;3.40;;
5539;SDS011;2792;52.452;9.752;2023-09-19T14:42:33;7.13;;;2.70;;
5539;SDS011;2792;52.452;9.752;2023-09-19T14:45:01;6.87;;;2.20;;
5539;SDS011;2792;52.452;9.752;2023-09-19T14:47:29;7.37;;;2.37;;
5539;SDS011;2792;52.452;9.752;2023-09-19T14:49:57;9.30;;;3.60;;
5539;SDS011;2792;52.452;9.752;2023-09-19T14:52:24;4.13;;;2.40;;
5539;SDS011;2792;52.452;9.752;2023-09-19T14:54:53;4.80;;;2.17;;
5539;SDS011;2792;52.452;9.752;2023-09-19T14:57:21;6.47;;;2.13;;
5539;SDS011;2792;52.452;9.752;2023-09-19T14:59:49;4.23;;;1.80;;
5539;SDS011;2792;52.452;9.752;2023-09-19T15:02:16;5.43;;;2.23;;
5539;SDS011;2792;52.452;9.752;2023-09-19T15:04:42;3.57;;;2.13;;
5539;SDS011;2792;52.452;9.752;2023-09-19T15:07:09;6.43;;;2.20;;
5539;SDS011;2792;52.452;9.752;2023-09-19T15:09:36;6.50;;;2.53;;
5539;SDS011;2792;52.452;9.752;2023-09-19T15:12:03;7.10;;;2.80;;
5539;SDS011;2792;52.452;9.752;2023-09-19T15:14:31;9.20;;;2.20;;
5539;SDS011;2792;52.452;9.752;2023-09-19T15:16:58;3.10;;;1.60;;
5539;SDS011;2792;52.452;9.752;2023-09-19T15:19:24;4.60;;;2.27;;
5539;SDS011;2792;52.452;9.752;2023-09-19T15:21:51;8.57;;;1.87;;
5539;SDS011;2792;52.452;9.752;2023-09-19T15:24:17;4.10;;;1.97;;
5539;SDS011;2792;52.452;9.752;2023-09-19T15:26:45;3.33;;;1.90;;
5539;SDS011;2792;52.452;9.752;2023-09-19T15:29:13;3.23;;;2.00;;
5539;SDS011;2792;52.452;9.752;2023-09-19T15:31:42;6.03;;;2.20;;
5539;SDS011;2792;52.452;9.752;2023-09-19T15:34:09;5.13;;;2.00;;
5539;SDS011;2792;52.452;9.752;2023-09-19T15:36:39;6.07;;;2.03;;
5539;SDS011;2792;52.452;9.752;2023-09-19T15:39:07;4.87;;;2.07;;
5539;SDS011;2792;52.452;9.752;2023-09-19T15:41:36;4.83;;;2.00;;
5539;SDS011;2792;52.452;9.752;2023-09-19T15:44:03;3.17;;;1.90;;
5539;SDS011;2792;52.452;9.752;2023-09-19T15:46:31;6.10;;;2.43;;